Time;durP1;ratioP1;P1;durP2;ratioP2;P2;SDS_P1;SDS_P2;PMS_P1;PMS_P2;Temp;Humidity;BMP_temperature;BMP_pressure;BME280_temperature;BME280_humidity;BME280_pressure;Samples;Min_cycle;Max_cycle;Signal;HPM_P1;HPM_P2
2023/09/20 00:01:40;;;;;;;0.60;0.60;;;11.70;99.90;;;;;;5132762;28;20199;-74
2023/09/20 00:04:07;;;;;;;0.60;0.60;;;11.70;99.90;;;;;;5133009;28;20679;-74
2023/09/20 00:06:33;;;;;;;0.57;0.57;;;11.70;99.90;;;;;;5132623;28;20198;-74
2023/09/20 00:09:00;;;;;;;0.50;0.50;;;11.70;99.90;;;;;;5132995;28;20202;-74
2023/09/20 00:11:26;;;;;;;0.55;0.55;;;11.70;99.90;;;;;;5132603;28;20194;-74
2023/09/20 00:13:52;;;;;;;0.50;0.50;;;11.70;99.90;;;;;;5132830;28;20213;-74
2023/09/20 00:16:19;;;;;;;0.60;0.60;;;11.70;99.90;;;;;;5124517;28;20274;-75
2023/09/20 00:18:44;;;;;;;0.50;0.50;;;11.80;99.90;;;;;;5112262;28;20191;-74
2023/09/20 00:21:11;;;;;;;0.70;0.70;;;11.70;99.90;;;;;;5112222;28;20200;-75
2023/09/20 00:23:36;;;;;;;0.50;0.50;;;11.70;99.90;;;;;;5093844;28;20567;-74
2023/09/20 00:26:03;;;;;;;0.50;0.50;;;11.70;99.90;;;;;;5112042;28;20203;-74
2023/09/20 00:28:30;;;;;;;0.50;0.50;;;11.70;99.90;;;;;;5112022;28;20638;-74
2023/09/20 00:30:57;;;;;;;0.50;0.50;;;11.70;99.90;;;;;;5112177;28;20625;-74
2023/09/20 00:33:23;;;;;;;0.50;0.50;;;11.70;99.90;;;;;;5093547;28;20191;-74
2023/09/20 00:35:48;;;;;;;0.52;0.52;;;11.80;99.90;;;;;;5127744;28;20266;-74
2023/09/20 00:38:18;;;;;;;0.57;0.57;;;11.70;99.90;;;;;;5132519;28;20198;-74
2023/09/20 00:40:43;;;;;;;0.50;0.50;;;11.70;99.90;;;;;;5132668;28;20191;-74
2023/09/20 00:43:11;;;;;;;0.50;0.50;;;11.70;99.90;;;;;;5131132;28;20205;-74
2023/09/20 00:45:40;;;;;;;0.52;0.52;;;11.70;99.90;;;;;;5132405;28;20230;-74
2023/09/20 00:48:07;;;;;;;0.50;0.50;;;11.70;99.90;;;;;;5132616;28;20187;-74
2023/09/20 00:50:35;;;;;;;0.50;0.50;;;11.60;99.90;;;;;;5132469;28;20270;-73
2023/09/20 00:53:06;;;;;;;0.50;0.50;;;11.70;99.90;;;;;;5132402;28;21529;-74
2023/09/20 00:55:34;;;;;;;5.78;1.23;;;11.70;99.90;;;;;;5132229;28;20191;-74
2023/09/20 00:58:07;;;;;;;16.55;0.90;;;11.70;99.90;;;;;;5113955;28;20704;-74
2023/09/20 01:00:37;;;;;;;0.50;0.50;;;11.70;99.90;;;;;;5132311;28;20674;-75
2023/09/20 01:03:04;;;;;;;0.50;0.50;;;11.70;99.90;;;;;;5132418;28;20296;-74
2023/09/20 01:05:34;;;;;;;1.02;0.93;;;11.70;99.90;;;;;;5113703;28;20677;-74
2023/09/20 01:08:01;;;;;;;0.50;0.50;;;11.60;99.90;;;;;;5132458;27;20187;-74
2023/09/20 01:10:31;;;;;;;0.57;0.57;;;11.60;99.90;;;;;;5117403;27;20199;-75
2023/09/20 01:13:04;;;;;;;0.50;0.50;;;11.60;99.90;;;;;;5123710;27;20681;-75
2023/09/20 01:15:31;;;;;;;0.70;0.70;;;11.60;99.90;;;;;;5115121;28;20214;-74
2023/09/20 01:17:58;;;;;;;0.50;0.50;;;11.50;99.90;;;;;;5115286;28;20249;-75
2023/09/20 01:20:25;;;;;;;0.50;0.50;;;11.50;99.90;;;;;;5114913;28;20790;-75
2023/09/20 01:22:56;;;;;;;0.50;0.50;;;11.50;99.90;;;;;;5114712;28;20681;-74
2023/09/20 01:25:43;;;;;;;0.63;0.63;;;11.40;99.90;;;;;;5130925;27;20688;-74
2023/09/20 01:28:10;;;;;;;0.50;0.50;;;11.40;99.90;;;;;;5135212;27;20191;-74
2023/09/20 01:30:39;;;;;;;0.50;0.50;;;11.50;99.90;;;;;;5135189;27;20199;-75
2023/09/20 01:33:07;;;;;;;5.78;1.58;;;11.40;99.90;;;;;;5134306;27;20195;-70
2023/09/20 01:35:33;;;;;;;0.52;0.52;;;11.40;99.90;;;;;;5121322;27;20203;-71
2023/09/20 01:37:59;;;;;;;0.50;0.50;;;11.40;99.90;;;;;;5096603;28;20207;-70
2023/09/20 01:40:26;;;;;;;0.50;0.50;;;11.40;99.90;;;;;;5096473;28;20191;-71
2023/09/20 01:42:59;;;;;;;0.50;0.50;;;11.30;99.90;;;;;;5113603;28;20253;-70
2023/09/20 01:45:25;;;;;;;0.50;0.50;;;11.30;99.90;;;;;;5114175;28;20578;-70
2023/09/20 01:48:00;;;;;;;0.50;0.50;;;11.20;99.90;;;;;;5114731;28;20222;-70
2023/09/20 01:50:27;;;;;;;0.50;0.50;;;11.20;99.90;;;;;;5127025;27;20278;-70
2023/09/20 01:52:55;;;;;;;0.40;0.40;;;11.20;99.90;;;;;;5135215;27;20187;-70
2023/09/20 01:55:22;;;;;;;0.60;0.60;;;11.10;99.90;;;;;;5134771;27;20408;-70
2023/09/20 01:57:49;;;;;;;0.50;0.50;;;11.20;99.90;;;;;;5135122;27;20680;-70
2023/09/20 02:00:32;;;;;;;0.50;0.50;;;11.10;99.90;;;;;;5135019;27;20190;-70
2023/09/20 02:03:00;;;;;;;0.60;0.60;;;11.10;99.90;;;;;;5135133;27;20191;-69
2023/09/20 02:05:27;;;;;;;0.70;0.70;;;11.10;99.90;;;;;;5134692;27;20629;-70
2023/09/20 02:07:58;;;;;;;0.60;0.60;;;11.10;99.90;;;;;;5134878;27;20236;-69
2023/09/20 02:10:24;;;;;;;0.50;0.50;;;11.20;99.90;;;;;;5134587;27;20661;-69
2023/09/20 02:12:55;;;;;;;0.60;0.60;;;11.10;99.90;;;;;;5134752;27;20262;-70
2023/09/20 02:15:24;;;;;;;0.50;0.50;;;11.10;99.90;;;;;;5134583;27;20195;-71
2023/09/20 02:17:50;;;;;;;0.50;0.50;;;11.20;99.90;;;;;;5134596;27;20199;-70
2023/09/20 02:20:19;;;;;;;0.50;0.50;;;11.20;99.90;;;;;;5129930;27;20278;-70
2023/09/20 02:22:47;;;;;;;0.50;0.50;;;11.10;99.90;;;;;;5113980;28;20188;-70
2023/09/20 02:25:14;;;;;;;0.60;0.60;;;11.20;99.90;;;;;;5113887;28;20207;-70
2023/09/20 02:27:44;;;;;;;0.80;0.80;;;11.20;99.90;;;;;;5124041;27;20202;-69
2023/09/20 02:30:15;;;;;;;0.50;0.50;;;11.20;99.90;;;;;;5134266;27;20197;-70
2023/09/20 02:32:41;;;;;;;0.40;0.40;;;11.20;99.90;;;;;;5132995;27;20669;-70
2023/09/20 02:35:07;;;;;;;0.50;0.50;;;11.20;99.90;;;;;;5124118;27;20661;-70
2023/09/20 02:37:37;;;;;;;0.50;0.50;;;11.10;99.90;;;;;;5113633;28;20336;-70
2023/09/20 02:40:13;;;;;;;0.50;0.50;;;11.10;99.90;;;;;;5113589;28;20689;-72
2023/09/20 02:42:46;;;;;;;0.50;0.50;;;11.10;99.90;;;;;;5113663;28;20202;-74
2023/09/20 02:45:13;;;;;;;0.60;0.60;;;11.20;99.90;;;;;;5113255;27;20312;-74
2023/09/20 02:47:42;;;;;;;0.70;0.70;;;11.20;99.90;;;;;;5133934;27;20207;-74
2023/09/20 02:50:12;;;;;;;0.60;0.60;;;11.20;99.90;;;;;;5134383;27;20179;-74
2023/09/20 02:52:39;;;;;;;0.50;0.50;;;11.20;99.90;;;;;;5134034;27;20194;-74
2023/09/20 02:55:07;;;;;;;0.60;0.60;;;11.20;99.90;;;;;;5133805;27;20187;-74
2023/09/20 02:57:39;;;;;;;0.60;0.60;;;11.20;99.90;;;;;;5133796;27;20236;-74
2023/09/20 03:00:15;;;;;;;0.60;0.60;;;11.30;99.90;;;;;;5133975;27;20243;-74
2023/09/20 03:02:45;;;;;;;0.50;0.50;;;11.30;99.90;;;;;;5132702;27;20234;-74
2023/09/20 03:05:16;;;;;;;0.52;0.52;;;11.30;99.90;;;;;;5115084;27;20264;-74
2023/09/20 03:07:47;;;;;;;0.60;0.60;;;11.30;99.90;;;;;;5115258;27;20199;-73
2023/09/20 03:10:13;;;;;;;0.50;0.50;;;11.30;99.90;;;;;;5134007;27;20182;-74
2023/09/20 03:12:44;;;;;;;0.52;0.52;;;11.30;99.90;;;;;;5132535;27;20198;-74
2023/09/20 03:15:17;;;;;;;1.15;1.15;;;11.30;99.90;;;;;;5133530;27;20665;-73
2023/09/20 03:17:43;;;;;;;0.60;0.60;;;11.30;99.90;;;;;;5118118;27;20234;-74
2023/09/20 03:20:10;;;;;;;0.60;0.60;;;11.40;99.90;;;;;;5113028;28;20191;-74
2023/09/20 03:22:39;;;;;;;0.60;0.60;;;11.40;99.90;;;;;;5112726;28;20195;-74
2023/09/20 03:25:09;;;;;;;0.55;0.55;;;11.40;99.90;;;;;;5131553;27;20217;-72
2023/09/20 03:27:40;;;;;;;0.60;0.60;;;11.40;99.90;;;;;;5133210;27;20190;-72
2023/09/20 03:30:08;;;;;;;0.50;0.50;;;11.40;99.90;;;;;;5133268;27;20226;-74
2023/09/20 03:32:33;;;;;;;0.57;0.57;;;11.50;99.90;;;;;;5132697;27;20645;-72
2023/09/20 03:34:59;;;;;;;0.60;0.60;;;11.40;99.90;;;;;;5122607;27;20278;-74
2023/09/20 03:37:27;;;;;;;0.50;0.50;;;11.40;99.90;;;;;;5094224;28;20203;-74
2023/09/20 03:39:52;;;;;;;0.60;0.60;;;11.50;99.90;;;;;;5094432;28;20203;-73
2023/09/20 03:42:18;;;;;;;0.50;0.50;;;11.50;99.90;;;;;;5119714;27;20559;-74
2023/09/20 03:44:45;;;;;;;0.55;0.55;;;11.50;99.90;;;;;;5114152;27;20226;-75
2023/09/20 03:47:11;;;;;;;0.50;0.50;;;11.50;99.90;;;;;;5114553;27;20206;-73
2023/09/20 03:49:36;;;;;;;0.50;0.50;;;11.50;99.90;;;;;;5114578;28;20560;-74
2023/09/20 03:52:02;;;;;;;0.50;0.50;;;11.50;99.90;;;;;;5114633;28;20232;-74
2023/09/20 03:54:29;;;;;;;0.50;0.50;;;11.50;99.90;;;;;;5133024;27;20190;-75
2023/09/20 03:56:55;;;;;;;2.95;1.30;;;11.50;99.90;;;;;;5132828;27;20713;-76
2023/09/20 03:59:21;;;;;;;0.50;0.50;;;11.50;99.90;;;;;;5114303;28;20299;-74
2023/09/20 04:01:46;;;;;;;0.60;0.60;;;11.50;99.90;;;;;;5133058;28;20236;-74
2023/09/20 04:04:16;;;;;;;0.60;0.60;;;11.50;99.90;;;;;;5132975;28;20191;-75
2023/09/20 04:06:43;;;;;;;0.75;0.75;;;11.50;99.90;;;;;;5114262;28;20238;-75
2023/09/20 04:09:11;;;;;;;0.60;0.60;;;11.50;99.90;;;;;;5133019;28;20259;-75
2023/09/20 04:11:38;;;;;;;0.60;0.60;;;11.50;99.90;;;;;;5132752;28;20660;-75
2023/09/20 04:14:05;;;;;;;0.50;0.50;;;11.50;99.90;;;;;;5116825;28;20219;-74
2023/09/20 04:16:31;;;;;;;0.50;0.50;;;11.50;99.90;;;;;;5093789;28;20195;-75
2023/09/20 04:18:57;;;;;;;0.70;0.70;;;11.50;99.90;;;;;;5094163;28;20202;-74
2023/09/20 04:21:25;;;;;;;0.55;0.55;;;11.50;99.90;;;;;;5131485;28;20195;-75
2023/09/20 04:23:51;;;;;;;1.33;1.08;;;11.50;99.90;;;;;;5131389;28;20207;-76
2023/09/20 04:26:17;;;;;;;0.50;0.50;;;11.50;99.90;;;;;;5132565;28;20214;-75
2023/09/20 04:28:42;;;;;;;0.50;0.50;;;11.50;99.90;;;;;;5132424;28;20190;-75
2023/09/20 04:31:09;;;;;;;0.50;0.50;;;11.50;99.90;;;;;;5132765;28;20213;-76
2023/09/20 04:33:38;;;;;;;0.43;0.43;;;11.50;99.90;;;;;;5132790;28;20179;-75
2023/09/20 04:36:04;;;;;;;0.52;0.52;;;11.60;99.90;;;;;;5114206;28;20587;-75
2023/09/20 04:38:33;;;;;;;0.50;0.50;;;11.60;99.90;;;;;;5094047;28;20199;-75
2023/09/20 04:41:02;;;;;;;0.52;0.52;;;11.60;99.90;;;;;;5112246;28;20667;-71
2023/09/20 04:43:28;;;;;;;0.60;0.60;;;11.60;99.90;;;;;;5112274;28;20643;-70
2023/09/20 04:45:57;;;;;;;0.50;0.50;;;11.60;99.90;;;;;;5115749;28;20203;-71
2023/09/20 04:48:23;;;;;;;0.40;0.40;;;11.60;99.90;;;;;;5115804;28;20658;-70
2023/09/20 04:50:49;;;;;;;0.60;0.60;;;11.60;99.90;;;;;;5115930;28;20191;-70
2023/09/20 04:53:18;;;;;;;0.85;0.85;;;11.60;99.90;;;;;;5115888;28;20215;-70
2023/09/20 04:55:43;;;;;;;0.57;0.57;;;11.60;99.90;;;;;;5097287;28;20654;-70
2023/09/20 04:58:10;;;;;;;0.65;0.65;;;11.60;99.90;;;;;;5115804;28;20201;-70
2023/09/20 05:00:37;;;;;;;0.50;0.50;;;11.70;99.90;;;;;;5115696;28;20195;-70
2023/09/20 05:03:05;;;;;;;0.60;0.60;;;11.60;99.90;;;;;;5115670;28;20191;-69
2023/09/20 05:05:34;;;;;;;0.52;0.52;;;11.70;99.90;;;;;;5115368;28;20286;-69
2023/09/20 05:08:00;;;;;;;0.50;0.50;;;11.60;99.90;;;;;;5115866;28;20190;-71
2023/09/20 05:10:26;;;;;;;0.65;0.65;;;11.60;99.90;;;;;;5096874;28;20556;-69
2023/09/20 05:12:51;;;;;;;0.60;0.60;;;11.70;99.90;;;;;;5115285;28;20195;-70
2023/09/20 05:15:17;;;;;;;0.60;0.60;;;11.60;99.90;;;;;;5116118;27;20202;-70
2023/09/20 05:17:48;;;;;;;0.50;0.50;;;11.70;99.90;;;;;;5135831;27;20198;-68
2023/09/20 05:20:14;;;;;;;6.43;2.25;;;11.70;99.90;;;;;;5135814;27;20187;-69
2023/09/20 05:22:41;;;;;;;0.50;0.50;;;11.70;99.90;;;;;;5135655;27;20239;-70
2023/09/20 05:25:08;;;;;;;0.50;0.50;;;11.70;99.90;;;;;;5135631;27;20675;-69
2023/09/20 05:27:34;;;;;;;0.50;0.50;;;11.70;99.90;;;;;;5135322;27;20649;-70
2023/09/20 05:30:00;;;;;;;0.50;0.50;;;11.70;99.90;;;;;;5135681;27;20190;-71
2023/09/20 05:32:26;;;;;;;0.50;0.50;;;11.80;99.90;;;;;;5135569;27;20194;-70
2023/09/20 05:34:52;;;;;;;0.57;0.57;;;11.80;99.90;;;;;;5134450;27;20191;-70
2023/09/20 05:37:18;;;;;;;0.75;0.73;;;11.80;99.90;;;;;;5135511;27;20550;-70
2023/09/20 05:39:47;;;;;;;0.93;0.93;;;11.80;99.90;;;;;;5135410;27;20194;-70
2023/09/20 05:42:17;;;;;;;0.50;0.50;;;11.80;99.90;;;;;;5135543;27;20217;-70
2023/09/20 05:44:43;;;;;;;1.20;1.10;;;11.90;99.90;;;;;;5135006;27;20222;-70
2023/09/20 05:47:09;;;;;;;0.57;0.57;;;11.90;99.90;;;;;;5135454;27;20661;-70
2023/09/20 05:49:38;;;;;;;0.50;0.50;;;11.90;99.90;;;;;;5116647;27;20202;-71
2023/09/20 05:52:06;;;;;;;0.50;0.50;;;12.00;99.90;;;;;;5116767;27;20565;-71
2023/09/20 05:54:32;;;;;;;0.40;0.40;;;12.00;99.90;;;;;;5134548;27;20278;-71
2023/09/20 05:56:59;;;;;;;0.50;0.50;;;12.10;99.90;;;;;;5135350;27;20629;-70
2023/09/20 05:59:26;;;;;;;0.50;0.50;;;12.10;99.90;;;;;;5134988;27;20714;-70
2023/09/20 06:01:52;;;;;;;1.75;1.58;;;12.10;99.90;;;;;;5116666;27;20200;-71
2023/09/20 06:04:19;;;;;;;0.50;0.50;;;12.20;99.90;;;;;;5135132;27;20199;-70
2023/09/20 06:06:45;;;;;;;1.42;1.05;;;12.20;99.90;;;;;;5134615;27;20203;-70
2023/09/20 06:09:10;;;;;;;0.57;0.57;;;12.30;99.90;;;;;;5116575;27;20553;-70
2023/09/20 06:11:36;;;;;;;0.50;0.50;;;12.30;99.90;;;;;;5134632;27;20231;-70
2023/09/20 06:14:04;;;;;;;0.47;0.47;;;12.30;99.90;;;;;;5133380;27;20194;-70
2023/09/20 06:16:30;;;;;;;0.50;0.50;;;12.30;99.90;;;;;;5134861;27;20183;-71
2023/09/20 06:18:56;;;;;;;0.60;0.60;;;12.30;99.90;;;;;;5133610;27;20206;-69
2023/09/20 06:21:23;;;;;;;0.43;0.43;;;12.30;99.90;;;;;;5134441;27;20205;-70
2023/09/20 06:23:49;;;;;;;0.50;0.50;;;12.40;99.90;;;;;;5133287;27;20221;-70
2023/09/20 06:26:15;;;;;;;0.50;0.50;;;12.40;99.90;;;;;;5134262;27;20209;-70
2023/09/20 06:28:44;;;;;;;0.70;0.70;;;12.50;99.90;;;;;;5134331;27;20191;-69
2023/09/20 06:31:13;;;;;;;0.65;0.65;;;12.50;99.90;;;;;;5133701;27;20191;-71
2023/09/20 06:33:47;;;;;;;0.50;0.50;;;12.60;99.90;;;;;;5116092;27;20198;-70
2023/09/20 06:36:20;;;;;;;1.13;1.05;;;12.70;99.90;;;;;;5134164;27;20567;-70
2023/09/20 06:38:51;;;;;;;0.55;0.55;;;12.70;99.90;;;;;;5134415;27;20597;-70
2023/09/20 06:41:19;;;;;;;0.50;0.50;;;12.70;99.90;;;;;;5134275;27;20195;-70
2023/09/20 06:43:44;;;;;;;0.40;0.40;;;12.70;99.90;;;;;;5115582;27;20230;-70
2023/09/20 06:46:10;;;;;;;0.50;0.50;;;12.70;99.90;;;;;;5133954;27;20267;-70
2023/09/20 06:48:37;;;;;;;0.50;0.50;;;12.70;99.90;;;;;;5134041;27;20187;-70
2023/09/20 06:51:03;;;;;;;0.57;0.57;;;12.80;99.90;;;;;;5115672;27;20281;-70
2023/09/20 06:53:30;;;;;;;0.50;0.50;;;12.80;99.90;;;;;;5115423;27;20206;-70
2023/09/20 06:55:56;;;;;;;0.40;0.40;;;12.70;99.90;;;;;;5134246;27;20194;-70
2023/09/20 06:58:21;;;;;;;0.50;0.50;;;12.70;99.90;;;;;;5133869;27;20198;-70
2023/09/20 07:00:50;;;;;;;0.50;0.50;;;12.80;99.90;;;;;;5115493;27;20210;-70
2023/09/20 07:03:16;;;;;;;0.50;0.50;;;12.80;99.90;;;;;;5114069;27;20193;-69
2023/09/20 07:05:41;;;;;;;0.50;0.50;;;12.80;99.90;;;;;;5112546;28;20211;-70
2023/09/20 07:08:08;;;;;;;0.50;0.50;;;12.90;99.90;;;;;;5116439;27;20191;-71
2023/09/20 07:10:33;;;;;;;0.57;0.57;;;12.90;99.90;;;;;;5133808;27;20183;-71
2023/09/20 07:13:00;;;;;;;0.50;0.50;;;13.00;99.90;;;;;;5133718;27;20273;-70
2023/09/20 07:15:28;;;;;;;0.50;0.50;;;13.00;99.90;;;;;;5133301;27;20661;-69
2023/09/20 07:18:00;;;;;;;0.43;0.43;;;13.10;99.90;;;;;;5133648;27;20186;-70
2023/09/20 07:20:29;;;;;;;0.60;0.60;;;13.10;99.90;;;;;;5133305;27;20202;-70
2023/09/20 07:22:55;;;;;;;0.47;0.47;;;13.10;99.90;;;;;;5133487;27;20590;-70
2023/09/20 07:25:22;;;;;;;0.50;0.50;;;13.20;99.90;;;;;;5133051;27;20544;-70
2023/09/20 07:27:55;;;;;;;0.40;0.40;;;13.20;99.90;;;;;;5132627;27;20661;-70
2023/09/20 07:30:23;;;;;;;0.40;0.40;;;13.30;99.90;;;;;;5133310;27;20186;-70
2023/09/20 07:32:50;;;;;;;0.40;0.40;;;13.40;99.90;;;;;;5114963;27;20650;-70
2023/09/20 07:35:25;;;;;;;0.50;0.50;;;13.50;99.90;;;;;;5114667;27;20282;-70
2023/09/20 07:37:58;;;;;;;0.40;0.40;;;13.60;99.90;;;;;;5114925;27;20695;-70
2023/09/20 07:40:31;;;;;;;0.40;0.40;;;13.60;99.90;;;;;;5114831;27;20280;-70
2023/09/20 07:43:04;;;;;;;0.40;0.40;;;13.70;99.90;;;;;;5133666;27;20661;-75
2023/09/20 07:45:41;;;;;;;0.40;0.40;;;13.60;99.90;;;;;;5132899;27;20226;-74
2023/09/20 07:48:21;;;;;;;0.70;0.70;;;13.70;99.90;;;;;;5114991;27;20605;-75
2023/09/20 07:50:54;;;;;;;0.40;0.40;;;13.60;99.90;;;;;;5115091;27;20202;-75
2023/09/20 07:53:21;;;;;;;0.40;0.40;;;13.60;99.90;;;;;;5133201;27;20224;-75
2023/09/20 07:56:04;;;;;;;0.50;0.50;;;13.70;99.90;;;;;;5133218;27;20189;-75
2023/09/20 07:58:34;;;;;;;0.40;0.40;;;13.80;99.90;;;;;;5103344;28;20191;-75
2023/09/20 08:01:12;;;;;;;0.40;0.40;;;13.80;99.90;;;;;;5094506;28;20666;-76
2023/09/20 08:03:50;;;;;;;0.50;0.50;;;13.80;99.90;;;;;;5117015;28;20199;-77
2023/09/20 08:06:23;;;;;;;0.40;0.40;;;13.90;99.90;;;;;;5132878;28;20268;-75
2023/09/20 08:08:49;;;;;;;0.40;0.40;;;13.90;99.90;;;;;;5133190;28;20271;-74
2023/09/20 08:11:14;;;;;;;0.40;0.40;;;13.90;99.90;;;;;;5133146;28;20265;-75
2023/09/20 08:13:40;;;;;;;0.40;0.40;;;13.80;99.90;;;;;;5132806;28;20561;-75
2023/09/20 08:16:09;;;;;;;0.40;0.40;;;13.90;99.90;;;;;;5132239;28;20631;-74
2023/09/20 08:21:25;;;;;;;0.40;0.40;;;14.10;99.90;;;;;;5116633;28;20249;-74
2023/09/20 08:59:52;;;;;;;0.45;0.45;;;14.90;99.90;;;;;;5136250;27;20213;-71
2023/09/20 09:02:18;;;;;;;0.40;0.40;;;15.20;99.90;;;;;;5136099;27;20202;-70
2023/09/20 09:04:49;;;;;;;0.30;0.30;;;15.40;99.90;;;;;;5135142;27;20245;-70
2023/09/20 09:07:17;;;;;;;0.30;0.30;;;15.50;99.90;;;;;;5117800;27;20194;-70
2023/09/20 09:09:43;;;;;;;0.40;0.40;;;15.70;99.90;;;;;;5136100;27;20183;-71
2023/09/20 09:12:09;;;;;;;0.70;0.70;;;15.90;99.90;;;;;;5136045;27;20194;-70
2023/09/20 09:14:40;;;;;;;0.35;0.35;;;15.80;99.90;;;;;;5135693;27;20236;-70
2023/09/20 09:17:07;;;;;;;0.60;0.60;;;15.60;99.90;;;;;;5136051;27;20191;-70
2023/09/20 09:19:34;;;;;;;0.40;0.40;;;15.40;99.90;;;;;;5135633;27;20725;-70
2023/09/20 09:22:00;;;;;;;0.45;0.45;;;15.30;99.90;;;;;;5135964;27;20235;-70
2023/09/20 09:24:29;;;;;;;0.50;0.50;;;15.30;99.90;;;;;;5136047;27;20553;-70
2023/09/20 09:27:05;;;;;;;0.40;0.40;;;15.30;99.90;;;;;;5135548;27;20214;-71
2023/09/20 09:29:31;;;;;;;0.40;0.40;;;15.50;99.90;;;;;;5134759;27;20194;-71
2023/09/20 09:32:00;;;;;;;0.30;0.30;;;15.70;99.90;;;;;;5135722;27;20186;-70
2023/09/20 09:34:26;;;;;;;0.50;0.50;;;15.90;99.90;;;;;;5135167;27;20187;-70
2023/09/20 09:36:53;;;;;;;0.70;0.70;;;16.10;99.90;;;;;;5135611;27;20687;-70
2023/09/20 09:39:19;;;;;;;3.13;1.00;;;16.20;99.90;;;;;;5135376;27;20183;-71
2023/09/20 09:41:46;;;;;;;0.30;0.30;;;16.20;99.90;;;;;;5135398;27;20225;-70
2023/09/20 09:44:13;;;;;;;0.30;0.30;;;16.10;99.90;;;;;;5135519;27;20227;-71
2023/09/20 09:46:41;;;;;;;0.43;0.43;;;15.90;99.90;;;;;;5135150;27;20581;-70
2023/09/20 09:49:11;;;;;;;0.30;0.30;;;15.90;99.90;;;;;;5116869;27;20621;-71
2023/09/20 09:51:45;;;;;;;0.30;0.30;;;15.80;99.90;;;;;;5118556;27;20564;-71
2023/09/20 09:54:15;;;;;;;0.70;0.70;;;15.60;99.90;;;;;;5114783;28;20671;-71
2023/09/20 09:56:41;;;;;;;0.30;0.30;;;15.50;99.90;;;;;;5116327;27;20199;-71
2023/09/20 09:59:07;;;;;;;0.40;0.40;;;15.40;99.90;;;;;;5135144;27;20183;-70
2023/09/20 10:01:37;;;;;;;0.35;0.35;;;15.20;99.90;;;;;;5134958;27;20713;-70
2023/09/20 10:04:08;;;;;;;0.40;0.40;;;15.30;99.90;;;;;;5134817;27;20191;-73
2023/09/20 10:07:16;;;;;;;0.30;0.30;;;15.20;99.90;;;;;;5134747;27;20209;-72
2023/09/20 10:09:48;;;;;;;0.40;0.40;;;15.10;99.90;;;;;;5133364;27;20191;-73
2023/09/20 10:12:15;;;;;;;0.38;0.38;;;15.10;99.90;;;;;;5133444;27;20263;-73
2023/09/20 10:14:43;;;;;;;0.35;0.35;;;15.00;99.90;;;;;;5134462;27;20198;-73
2023/09/20 10:17:14;;;;;;;0.30;0.30;;;15.10;99.90;;;;;;5134295;27;20198;-73
2023/09/20 10:19:39;;;;;;;0.60;0.60;;;15.10;99.90;;;;;;5134672;27;20208;-73
2023/09/20 10:22:08;;;;;;;0.30;0.30;;;15.10;99.90;;;;;;5134547;27;20260;-73
2023/09/20 10:25:26;;;;;;;1.13;1.05;;;15.10;99.90;;;;;;5134881;27;20264;-73
2023/09/20 10:27:52;;;;;;;0.30;0.30;;;15.20;99.90;;;;;;5110699;28;20250;-72
2023/09/20 10:30:21;;;;;;;0.40;0.40;;;15.00;99.90;;;;;;5113754;28;20236;-72
2023/09/20 10:33:04;;;;;;;0.40;0.40;;;15.10;99.90;;;;;;5112571;28;20609;-73
2023/09/20 10:35:31;;;;;;;0.40;0.40;;;15.00;99.90;;;;;;5113447;28;20202;-73
2023/09/20 10:38:12;;;;;;;0.40;0.40;;;15.10;99.90;;;;;;5113670;28;20187;-73
2023/09/20 10:40:48;;;;;;;0.40;0.40;;;14.90;99.90;;;;;;5113535;28;20244;-73
2023/09/20 10:43:30;;;;;;;0.30;0.30;;;15.00;99.90;;;;;;5113663;28;20193;-73
2023/09/20 10:45:57;;;;;;;0.30;0.30;;;14.90;99.90;;;;;;5113506;28;20619;-73
2023/09/20 10:48:23;;;;;;;0.40;0.40;;;15.00;99.90;;;;;;5113434;28;20187;-73
2023/09/20 10:50:54;;;;;;;0.32;0.32;;;15.00;99.90;;;;;;5113590;28;20232;-73
2023/09/20 10:53:22;;;;;;;0.40;0.40;;;14.90;99.90;;;;;;5118550;27;20738;-73
2023/09/20 10:55:51;;;;;;;0.52;0.47;;;14.90;99.90;;;;;;5133913;27;20187;-73
2023/09/20 10:58:23;;;;;;;0.40;0.40;;;15.00;99.90;;;;;;5133840;27;20269;-73
2023/09/20 11:00:51;;;;;;;0.30;0.30;;;15.10;99.90;;;;;;5132669;27;20194;-73
2023/09/20 11:03:18;;;;;;;0.30;0.30;;;15.10;99.90;;;;;;5133783;27;20191;-73
2023/09/20 11:05:44;;;;;;;0.30;0.30;;;15.00;99.90;;;;;;5133653;27;20572;-72
2023/09/20 11:08:13;;;;;;;0.30;0.30;;;14.90;99.90;;;;;;5133927;27;20191;-73
2023/09/20 11:10:40;;;;;;;0.35;0.35;;;14.90;99.90;;;;;;5133519;27;20557;-73
2023/09/20 11:13:08;;;;;;;0.55;0.55;;;14.80;99.90;;;;;;5132766;27;20232;-74
2023/09/20 11:15:41;;;;;;;0.40;0.40;;;15.00;99.90;;;;;;5133468;27;20191;-74
2023/09/20 11:18:14;;;;;;;0.40;0.40;;;15.10;99.90;;;;;;5133642;27;20196;-74
2023/09/20 11:20:42;;;;;;;0.30;0.30;;;15.20;99.90;;;;;;5133362;27;20224;-74
2023/09/20 11:23:09;;;;;;;0.40;0.40;;;15.30;99.90;;;;;;5133506;27;20190;-74
2023/09/20 11:25:36;;;;;;;0.40;0.40;;;15.30;99.90;;;;;;5133476;27;20195;-74
2023/09/20 11:28:04;;;;;;;0.30;0.30;;;15.30;99.90;;;;;;5133453;27;20194;-73
2023/09/20 11:30:31;;;;;;;0.40;0.40;;;15.30;99.90;;;;;;5113314;27;20198;-74
2023/09/20 11:33:01;;;;;;;0.32;0.32;;;15.30;99.90;;;;;;5094638;28;20715;-74
2023/09/20 11:35:39;;;;;;;0.40;0.40;;;15.20;99.90;;;;;;5125237;27;20252;-74
2023/09/20 11:38:07;;;;;;;0.38;0.38;;;15.10;99.90;;;;;;5133266;27;20607;-74
2023/09/20 11:40:41;;;;;;;0.35;0.35;;;14.80;99.90;;;;;;5114892;27;20199;-74
2023/09/20 11:43:09;;;;;;;0.40;0.40;;;14.80;99.90;;;;;;5114602;27;20529;-74
2023/09/20 11:45:35;;;;;;;0.30;0.30;;;14.70;99.90;;;;;;5113848;27;20226;-74
2023/09/20 11:48:08;;;;;;;0.40;0.40;;;14.60;99.90;;;;;;5114815;27;20594;-74
2023/09/20 11:50:34;;;;;;;0.40;0.40;;;14.70;99.90;;;;;;5132905;27;20282;-74
2023/09/20 11:53:00;;;;;;;0.40;0.40;;;14.80;99.90;;;;;;5132595;27;20270;-74
2023/09/20 11:55:26;;;;;;;0.40;0.40;;;14.90;99.90;;;;;;5131605;27;20201;-74
2023/09/20 11:57:55;;;;;;;0.30;0.30;;;14.90;99.90;;;;;;5132988;28;20713;-74
2023/09/20 12:00:25;;;;;;;0.30;0.30;;;15.00;99.90;;;;;;5132605;27;20201;-73
2023/09/20 12:02:53;;;;;;;0.40;0.40;;;15.20;99.90;;;;;;5131701;28;20275;-74
2023/09/20 12:05:19;;;;;;;0.30;0.30;;;15.20;99.90;;;;;;5132699;28;20689;-74
2023/09/20 12:07:59;;;;;;;0.30;0.30;;;15.20;99.90;;;;;;5132720;28;20216;-73
2023/09/20 12:10:26;;;;;;;0.40;0.40;;;15.30;99.90;;;;;;5112244;28;20641;-74
2023/09/20 12:12:52;;;;;;;0.30;0.30;;;15.30;99.90;;;;;;5112301;28;20191;-74
2023/09/20 12:15:21;;;;;;;0.40;0.40;;;15.30;99.90;;;;;;5112207;28;20218;-74
2023/09/20 12:17:47;;;;;;;0.50;0.50;;;15.30;99.90;;;;;;5112105;28;20228;-74
2023/09/20 12:20:16;;;;;;;0.30;0.30;;;15.30;99.90;;;;;;5112332;28;20187;-74
2023/09/20 12:22:44;;;;;;;0.40;0.40;;;15.40;99.90;;;;;;5093965;28;20222;-74
2023/09/20 12:25:11;;;;;;;0.40;0.40;;;15.30;99.90;;;;;;5112149;28;20242;-74
2023/09/20 12:27:37;;;;;;;0.30;0.30;;;15.20;99.90;;;;;;5112072;28;20211;-74
2023/09/20 12:30:06;;;;;;;0.30;0.30;;;15.30;99.90;;;;;;5112186;28;20215;-74
2023/09/20 12:32:32;;;;;;;0.40;0.40;;;15.40;99.90;;;;;;5111967;28;20226;-74
2023/09/20 12:34:58;;;;;;;0.30;0.30;;;15.60;99.90;;;;;;5112015;28;20654;-74
2023/09/20 12:37:26;;;;;;;0.30;0.30;;;15.70;99.90;;;;;;5111803;28;20191;-74
2023/09/20 12:39:53;;;;;;;0.30;0.30;;;15.80;99.90;;;;;;5111954;28;20196;-74
2023/09/20 12:42:18;;;;;;;0.35;0.35;;;16.00;99.90;;;;;;5112086;28;20199;-74
2023/09/20 12:44:44;;;;;;;0.30;0.30;;;16.10;99.90;;;;;;5111892;28;20219;-74
2023/09/20 12:47:10;;;;;;;0.30;0.30;;;16.10;99.90;;;;;;5128791;28;20214;-74
2023/09/20 12:49:36;;;;;;;0.30;0.30;;;16.00;99.90;;;;;;5132637;28;20214;-74
2023/09/20 12:52:03;;;;;;;0.30;0.30;;;16.00;99.90;;;;;;5132491;28;20183;-74
2023/09/20 12:54:32;;;;;;;0.30;0.30;;;15.90;99.90;;;;;;5132450;28;20673;-74
2023/09/20 12:56:58;;;;;;;0.30;0.30;;;15.80;99.90;;;;;;5131433;28;20278;-75
2023/09/20 12:59:27;;;;;;;0.30;0.30;;;15.80;99.90;;;;;;5130959;28;20604;-74
2023/09/20 13:01:59;;;;;;;0.30;0.30;;;15.90;99.90;;;;;;5131188;28;20230;-74
2023/09/20 13:04:24;;;;;;;0.32;0.32;;;15.90;99.90;;;;;;5130569;27;20278;-74
2023/09/20 13:06:51;;;;;;;0.32;0.32;;;15.90;99.90;;;;;;5136263;27;20286;-74
2023/09/20 13:09:16;;;;;;;0.30;0.30;;;16.00;99.90;;;;;;5136149;27;20191;-74
2023/09/20 13:11:45;;;;;;;0.30;0.30;;;16.10;99.90;;;;;;5135798;27;20210;-74
2023/09/20 13:14:12;;;;;;;0.40;0.40;;;16.20;99.90;;;;;;5136319;27;20650;-74
2023/09/20 13:16:40;;;;;;;0.30;0.30;;;16.30;99.90;;;;;;5117507;27;20220;-74
2023/09/20 13:19:08;;;;;;;0.40;0.40;;;16.40;99.90;;;;;;5136054;27;20190;-75
2023/09/20 13:21:35;;;;;;;0.30;0.30;;;16.50;99.90;;;;;;5135735;27;20556;-74
2023/09/20 13:24:01;;;;;;;0.43;0.43;;;16.50;99.90;;;;;;5135874;27;20191;-74
2023/09/20 13:26:27;;;;;;;0.30;0.30;;;16.50;99.90;;;;;;5135990;27;20290;-74
2023/09/20 13:28:53;;;;;;;0.30;0.30;;;16.60;99.90;;;;;;5135822;27;20191;-74
2023/09/20 13:31:19;;;;;;;0.50;0.50;;;16.60;99.90;;;;;;5117060;27;20198;-74
2023/09/20 13:33:44;;;;;;;0.40;0.40;;;16.70;99.90;;;;;;5135717;27;20187;-71